Time;durP1;ratioP1;P1;durP2;ratioP2;P2;SDS_P1;SDS_P2;PMS_P1;PMS_P2;Temp;Humidity;BMP_temperature;BMP_pressure;BME280_temperature;BME280_humidity;BME280_pressure;Samples;Min_cycle;Max_cycle;Signal;HPM_P1;HPM_P2
2021/07/06 00:00:43;;;;;;;;;;;;;;;23.20;47.18;99850.94;3496738;28;20295;-71
2021/07/06 00:02:23;;;;;;;;;;;;;;;23.19;46.90;99860.22;3496778;28;19924;-71
2021/07/06 00:04:04;;;;;;;;;;;;;;;23.18;47.00;99844.97;3496645;28;19925;-70
2021/07/06 00:05:44;;;;;;;;;;;;;;;23.12;47.23;99844.16;3496613;28;19963;-70
2021/07/06 00:07:25;;;;;;;;;;;;;;;23.18;47.04;99847.69;3497794;28;19925;-70
2021/07/06 00:09:05;;;;;;;;;;;;;;;23.17;47.24;99860.47;3496572;28;19963;-70
2021/07/06 00:10:47;;;;;;;;;;;;;;;23.16;47.29;99849.88;3496918;28;19924;-70
2021/07/06 00:12:28;;;;;;;;;;;;;;;23.16;47.32;99860.75;3496687;28;19931;-71
2021/07/06 00:14:08;;;;;;;;;;;;;;;23.15;47.20;99859.13;3496475;28;19924;-70
2021/07/06 00:15:49;;;;;;;;;;;;;;;23.15;47.15;99859.13;3496845;28;20287;-68
2021/07/06 00:17:29;;;;;;;;;;;;;;;23.21;47.43;99863.47;3497593;28;19924;-68
2021/07/06 00:19:10;;;;;;;;;;;;;;;23.29;47.45;99855.56;3497041;28;20378;-68
2021/07/06 00:20:50;;;;;;;;;;;;;;;23.40;47.63;99861.78;3496539;28;19925;-68
2021/07/06 00:22:31;;;;;;;;;;;;;;;23.50;47.77;99856.34;3495571;28;19924;-68
2021/07/06 00:24:11;;;;;;;;;;;;;;;23.58;47.82;99854.16;3496650;28;19931;-67
2021/07/06 00:25:52;;;;;;;;;;;;;;;23.66;47.75;99862.53;3509701;28;19983;-70
2021/07/06 00:27:32;;;;;;;;;;;;;;;23.74;47.87;99858.47;3509832;28;19931;-69
2021/07/06 00:29:13;;;;;;;;;;;;;;;23.80;47.73;99861.97;3510456;28;19969;-70
2021/07/06 00:30:53;;;;;;;;;;;;;;;23.83;47.83;99862.25;3510521;28;19927;-71
2021/07/06 00:32:42;;;;;;;;;;;;;;;23.87;47.80;99849.69;3510588;28;19924;-70
2021/07/06 00:34:22;;;;;;;;;;;;;;;23.90;47.75;99860.03;3509837;28;19924;-70
2021/07/06 00:36:03;;;;;;;;;;;;;;;23.92;47.69;99859.75;3510175;28;19924;-70
2021/07/06 00:37:44;;;;;;;;;;;;;;;23.93;47.75;99862.22;3509917;28;19931;-69
2021/07/06 00:39:24;;;;;;;;;;;;;;;23.94;47.63;99861.13;3511492;28;19924;-70
2021/07/06 00:41:05;;;;;;;;;;;;;;;23.96;47.71;99858.13;3512850;28;20394;-69
2021/07/06 00:42:46;;;;;;;;;;;;;;;23.99;47.70;99854.03;3513115;28;19924;-70
2021/07/06 00:44:27;;;;;;;;;;;;;;;23.98;47.64;99855.91;3502946;28;20074;-70
2021/07/06 00:46:07;;;;;;;;;;;;;;;23.99;47.66;99857.56;3511191;28;19928;-69
2021/07/06 00:47:48;;;;;;;;;;;;;;;23.99;47.61;99856.75;3502525;28;20385;-70
2021/07/06 00:49:28;;;;;;;;;;;;;;;23.99;47.95;99856.75;3498867;28;19931;-71
2021/07/06 00:51:09;;;;;;;;;;;;;;;23.99;47.71;99851.31;3498914;28;19931;-70
2021/07/06 00:52:50;;;;;;;;;;;;;;;23.97;47.44;99856.22;3498663;28;19925;-70
2021/07/06 00:54:31;;;;;;;;;;;;;;;23.97;47.75;99858.94;3498841;28;19932;-72
2021/07/06 00:56:11;;;;;;;;;;;;;;;23.95;47.79;99856.47;3498766;28;20375;-70
2021/07/06 00:57:52;;;;;;;;;;;;;;;23.94;47.71;99855.66;3499654;28;20398;-71
2021/07/06 00:59:32;;;;;;;;;;;;;;;23.94;47.70;99863.84;3498728;28;20331;-69
2021/07/06 01:01:13;;;;;;;;;;;;;;;23.96;47.67;99863.56;3484815;28;20307;-72
2021/07/06 01:02:53;;;;;;;;;;;;;;;23.96;47.75;99863.56;3485182;28;19970;-71
2021/07/06 01:04:34;;;;;;;;;;;;;;;23.95;47.74;99862.72;3495064;28;19931;-72
2021/07/06 01:06:14;;;;;;;;;;;;;;;23.95;47.81;99862.72;3512940;28;19930;-70
2021/07/06 01:07:55;;;;;;;;;;;;;;;23.97;47.83;99859.75;3500376;28;19925;-71
2021/07/06 01:09:35;;;;;;;;;;;;;;;23.98;47.66;99860.53;3498843;28;19924;-70
2021/07/06 01:11:17;;;;;;;;;;;;;;;23.97;47.69;99864.38;3494915;28;19982;-71
2021/07/06 01:12:58;;;;;;;;;;;;;;;23.95;47.60;99865.44;3491806;28;19925;-70
2021/07/06 01:14:38;;;;;;;;;;;;;;;23.95;47.63;99864.66;3510049;28;20451;-70
2021/07/06 01:16:19;;;;;;;;;;;;;;;23.94;47.52;99869.28;3512910;28;19978;-72
2021/07/06 01:18:09;;;;;;;;;;;;;;;23.93;47.55;99870.38;3512553;28;20368;-70
2021/07/06 01:19:50;;;;;;;;;;;;;;;23.94;47.43;99872.00;3512963;28;19927;-70
2021/07/06 01:21:30;;;;;;;;;;;;;;;23.93;47.66;99870.38;3503241;28;19924;-70
2021/07/06 01:23:11;;;;;;;;;;;;;;;23.94;47.50;99872.00;3498772;28;19924;-70
2021/07/06 01:24:52;;;;;;;;;;;;;;;23.94;47.60;99871.19;3496989;28;19977;-71
2021/07/06 01:26:32;;;;;;;;;;;;;;;23.93;47.67;99875.00;3498616;28;19924;-72
2021/07/06 01:28:13;;;;;;;;;;;;;;;23.93;47.58;99870.38;3498603;28;19930;-71
2021/07/06 01:29:53;;;;;;;;;;;;;;;23.94;47.82;99873.91;3498807;28;19924;-72
2021/07/06 01:31:34;;;;;;;;;;;;;;;23.95;47.73;99878.25;3505550;28;19924;-71
2021/07/06 01:33:22;;;;;;;;;;;;;;;23.96;47.52;99877.19;3508847;28;19931;-73
2021/07/06 01:35:03;;;;;;;;;;;;;;;23.96;47.61;99885.34;3501275;28;19929;-72
2021/07/06 01:36:44;;;;;;;;;;;;;;;23.97;47.71;99886.16;3498652;28;19924;-70
2021/07/06 01:38:26;;;;;;;;;;;;;;;23.98;47.64;99885.06;3497794;28;20432;-71
2021/07/06 01:40:07;;;;;;;;;;;;;;;23.98;47.66;99887.78;3498105;28;20150;-72
2021/07/06 01:41:48;;;;;;;;;;;;;;;23.99;47.45;99892.16;3509131;28;19961;-72
2021/07/06 01:43:28;;;;;;;;;;;;;;;23.99;47.68;99881.25;3505232;28;19932;-70
2021/07/06 01:45:10;;;;;;;;;;;;;;;23.99;47.68;99892.16;3484533;28;19931;-72
2021/07/06 01:46:51;;;;;;;;;;;;;;;23.99;47.61;99883.97;3484944;28;20379;-72
2021/07/06 01:48:31;;;;;;;;;;;;;;;23.98;47.69;99882.34;3484770;28;20028;-71
2021/07/06 01:50:19;;;;;;;;;;;;;;;23.98;47.65;99887.78;3484093;28;19993;-71
2021/07/06 01:52:00;;;;;;;;;;;;;;;23.97;47.65;99892.41;3494182;28;19931;-71
2021/07/06 01:53:40;;;;;;;;;;;;;;;23.98;47.54;99898.66;3497461;28;19924;-71
2021/07/06 01:55:25;;;;;;;;;;;;;;;23.97;47.71;99897.06;3498251;28;19925;-72
2021/07/06 01:57:06;;;;;;;;;;;;;;;23.95;47.65;99894.59;3498341;28;19928;-72
2021/07/06 01:58:47;;;;;;;;;;;;;;;23.94;47.77;99888.34;3498313;28;19924;-72
2021/07/06 02:00:28;;;;;;;;;;;;;;;23.94;47.63;99896.50;3498503;28;20398;-72
2021/07/06 02:02:09;;;;;;;;;;;;;;;23.92;47.71;99893.25;3500552;28;19925;-70
2021/07/06 02:03:50;;;;;;;;;;;;;;;23.93;47.80;99896.78;3505253;28;19924;-71
2021/07/06 02:05:39;;;;;;;;;;;;;;;23.93;47.77;99886.72;3497027;28;20430;-70
2021/07/06 02:07:19;;;;;;;;;;;;;;;23.95;47.63;99887.22;3498311;28;20394;-72
2021/07/06 02:09:00;;;;;;;;;;;;;;;23.98;47.77;99898.66;3497958;28;19923;-73
2021/07/06 02:10:41;;;;;;;;;;;;;;;24.00;47.55;99899.22;3498153;28;19924;-70
2021/07/06 02:12:22;;;;;;;;;;;;;;;24.03;47.64;99904.09;3496999;28;19921;-72
2021/07/06 02:14:03;;;;;;;;;;;;;;;24.06;47.58;99903.53;3498325;28;19928;-71
2021/07/06 02:15:44;;;;;;;;;;;;;;;24.08;47.42;99906.78;3512395;28;19955;-72
2021/07/06 02:17:25;;;;;;;;;;;;;;;24.09;47.40;99905.72;3511770;28;20408;-71
2021/07/06 02:19:06;;;;;;;;;;;;;;;24.10;47.59;99910.88;3511848;28;19931;-71
2021/07/06 02:20:50;;;;;;;;;;;;;;;24.10;47.36;99897.25;3510295;28;19916;-71
2021/07/06 02:22:31;;;;;;;;;;;;;;;24.10;47.59;99908.16;3510012;28;19931;-72
2021/07/06 02:24:12;;;;;;;;;;;;;;;24.11;47.51;99904.34;3498360;28;19924;-70
2021/07/06 02:25:53;;;;;;;;;;;;;;;24.14;47.44;99908.41;3497823;28;19966;-70
2021/07/06 02:27:33;;;;;;;;;;;;;;;24.13;47.11;99907.59;3498043;28;19924;-70
2021/07/06 02:29:14;;;;;;;;;;;;;;;24.15;47.42;99907.31;3498445;28;19932;-70
2021/07/06 02:30:54;;;;;;;;;;;;;;;24.14;47.31;99906.50;3498133;28;20454;-70
2021/07/06 02:32:35;;;;;;;;;;;;;;;24.13;47.34;99912.22;3503412;28;20018;-69
2021/07/06 02:34:16;;;;;;;;;;;;;;;24.13;47.34;99904.06;3511046;28;19924;-70
2021/07/06 02:35:56;;;;;;;;;;;;;;;24.14;47.19;99905.69;3511985;28;20018;-71
2021/07/06 02:37:37;;;;;;;;;;;;;;;24.15;47.32;99908.13;3511985;28;19947;-72
2021/07/06 02:39:18;;;;;;;;;;;;;;;24.18;47.20;99904.03;3512315;28;19977;-71
2021/07/06 02:40:58;;;;;;;;;;;;;;;24.20;47.27;99906.47;3511019;28;20332;-71
2021/07/06 02:42:39;;;;;;;;;;;;;;;24.19;47.07;99911.13;3506153;28;20276;-71
2021/07/06 02:44:19;;;;;;;;;;;;;;;24.19;47.34;99911.13;3497967;28;19924;-71
2021/07/06 02:46:00;;;;;;;;;;;;;;;24.20;47.28;99907.28;3497798;28;19932;-70
2021/07/06 02:47:41;;;;;;;;;;;;;;;24.23;47.11;99912.19;3497817;28;19931;-71
2021/07/06 02:49:21;;;;;;;;;;;;;;;24.22;47.25;99910.56;3497869;28;19925;-70
2021/07/06 02:51:02;;;;;;;;;;;;;;;24.25;47.23;99920.88;3497728;28;19978;-71
2021/07/06 02:52:43;;;;;;;;;;;;;;;24.26;47.31;99922.50;3498360;28;19982;-70
2021/07/06 02:54:23;;;;;;;;;;;;;;;24.28;47.12;99923.06;3497420;28;19931;-70
2021/07/06 02:56:04;;;;;;;;;;;;;;;24.28;47.07;99917.59;3497479;28;19916;-71
2021/07/06 02:57:45;;;;;;;;;;;;;;;24.28;46.84;99923.06;3497596;28;19955;-71
2021/07/06 02:59:25;;;;;;;;;;;;;;;24.29;46.98;99921.13;3497768;28;19931;-72
2021/07/06 03:01:06;;;;;;;;;;;;;;;24.29;47.04;99916.53;3496104;28;19959;-71
2021/07/06 03:02:47;;;;;;;;;;;;;;;24.33;47.01;99914.03;3496850;28;19948;-70
2021/07/06 03:04:28;;;;;;;;;;;;;;;24.35;47.03;99918.13;3503841;28;19924;-71
2021/07/06 03:06:09;;;;;;;;;;;;;;;24.36;46.99;99922.47;3510847;28;20029;-72
2021/07/06 03:07:49;;;;;;;;;;;;;;;24.37;46.91;99921.38;3508991;28;20314;-71
2021/07/06 03:09:30;;;;;;;;;;;;;;;24.40;46.89;99920.00;3497348;28;19921;-71
2021/07/06 03:11:10;;;;;;;;;;;;;;;24.41;46.88;99923.53;3497231;28;19978;-72
2021/07/06 03:12:51;;;;;;;;;;;;;;;24.42;46.91;99925.16;3497342;28;20038;-70
2021/07/06 03:14:32;;;;;;;;;;;;;;;24.41;46.97;99924.34;3501386;28;19924;-70
2021/07/06 03:16:12;;;;;;;;;;;;;;;24.42;46.86;99926.00;3511324;28;19924;-71
2021/07/06 03:17:53;;;;;;;;;;;;;;;24.41;46.81;99927.06;3509967;28;19928;-70
2021/07/06 03:19:33;;;;;;;;;;;;;;;24.41;46.58;99926.25;3493339;28;20346;-71
2021/07/06 03:21:16;;;;;;;;;;;;;;;24.41;46.82;99926.25;3507237;28;19920;-71
2021/07/06 03:22:57;;;;;;;;;;;;;;;24.41;46.79;99929.78;3520359;28;19931;-70
2021/07/06 03:24:37;;;;;;;;;;;;;;;24.43;46.93;99933.06;3526332;28;19920;-71
2021/07/06 03:26:18;;;;;;;;;;;;;;;24.45;46.80;99932.81;3524514;28;19924;-71
2021/07/06 03:28:00;;;;;;;;;;;;;;;24.47;46.67;99933.34;3511509;28;19958;-71
2021/07/06 03:29:40;;;;;;;;;;;;;;;24.46;46.70;99924.34;3510864;28;20399;-71
2021/07/06 03:31:22;;;;;;;;;;;;;;;24.48;46.50;99924.09;3502713;28;19932;-72
2021/07/06 03:33:04;;;;;;;;;;;;;;;24.50;46.71;99935.50;3503360;28;19936;-71
2021/07/06 03:34:44;;;;;;;;;;;;;;;24.50;46.55;99930.03;3497150;28;20376;-71
2021/07/06 03:36:25;;;;;;;;;;;;;;;24.49;46.76;99929.22;3495850;28;20054;-71
2021/07/06 03:38:05;;;;;;;;;;;;;;;24.50;46.51;99930.03;3496547;28;20016;-73
2021/07/06 03:39:46;;;;;;;;;;;;;;;24.52;46.69;99919.69;3496741;28;19924;-72
2021/07/06 03:41:26;;;;;;;;;;;;;;;24.54;46.70;99922.94;3506125;28;20023;-71
2021/07/06 03:43:08;;;;;;;;;;;;;;;24.57;46.65;99927.84;3510099;28;20014;-72
2021/07/06 03:44:49;;;;;;;;;;;;;;;24.61;46.43;99923.47;3510828;28;20403;-71
2021/07/06 03:46:29;;;;;;;;;;;;;;;24.64;46.41;99933.78;3510581;28;19931;-72
2021/07/06 03:48:10;;;;;;;;;;;;;;;24.66;46.46;99931.59;3510945;28;19924;-71
2021/07/06 03:49:50;;;;;;;;;;;;;;;24.65;46.30;99929.97;3510904;28;20347;-70
2021/07/06 03:51:31;;;;;;;;;;;;;;;24.67;46.38;99933.22;3510033;28;20417;-70
2021/07/06 03:53:11;;;;;;;;;;;;;;;24.69;46.31;99933.75;3498263;28;20023;-70
2021/07/06 03:54:52;;;;;;;;;;;;;;;24.73;46.43;99931.28;3496887;28;20027;-71
2021/07/06 03:56:32;;;;;;;;;;;;;;;24.76;46.25;99934.25;3496788;28;19925;-72
2021/07/06 03:58:13;;;;;;;;;;;;;;;24.80;46.25;99935.31;3495584;28;19925;-71
2021/07/06 03:59:57;;;;;;;;;;;;;;;24.87;46.59;99936.94;3493038;28;19925;-71
2021/07/06 04:01:38;;;;;;;;;;;;;;;24.91;46.19;99932.50;3500276;28;19928;-71
2021/07/06 04:03:19;;;;;;;;;;;;;;;24.95;46.19;99936.31;3499593;28;19925;-72
2021/07/06 04:04:59;;;;;;;;;;;;;;;24.98;46.00;99939.28;3508633;28;19945;-71
2021/07/06 04:06:40;;;;;;;;;;;;;;;25.02;46.31;99934.09;3487344;28;19928;-72
2021/07/06 04:08:20;;;;;;;;;;;;;;;25.06;46.08;99946.03;3493600;28;19924;-71
2021/07/06 04:10:02;;;;;;;;;;;;;;;25.11;46.16;99937.00;3496373;28;19932;-71
2021/07/06 04:11:42;;;;;;;;;;;;;;;25.14;46.08;99941.88;3496914;28;20286;-71
2021/07/06 04:13:23;;;;;;;;;;;;;;;25.16;45.87;99937.81;3496233;28;19951;-71
2021/07/06 04:15:09;;;;;;;;;;;;;;;25.19;45.93;99936.41;3496129;28;19989;-71
2021/07/06 04:16:49;;;;;;;;;;;;;;;25.20;46.04;99938.06;3499988;28;20309;-73
2021/07/06 04:18:30;;;;;;;;;;;;;;;25.21;45.97;99937.75;3510669;28;20026;-70
2021/07/06 04:20:11;;;;;;;;;;;;;;;25.25;45.94;99938.03;3510367;28;19949;-71
2021/07/06 04:21:52;;;;;;;;;;;;;;;25.27;45.91;99941.25;3509400;28;19959;-73
2021/07/06 04:23:35;;;;;;;;;;;;;;;25.29;45.72;99932.81;3510389;28;20435;-72
2021/07/06 04:25:16;;;;;;;;;;;;;;;25.30;45.66;99937.16;3510669;28;19989;-72
2021/07/06 04:26:57;;;;;;;;;;;;;;;25.31;45.71;99931.41;3509793;28;19924;-72
2021/07/06 04:28:38;;;;;;;;;;;;;;;25.35;45.70;99937.94;3510331;28;19920;-72
2021/07/06 04:30:19;;;;;;;;;;;;;;;25.39;45.60;99938.97;3509219;28;20388;-73
2021/07/06 04:31:59;;;;;;;;;;;;;;;25.41;45.52;99935.97;3509469;28;20378;-73
2021/07/06 04:33:40;;;;;;;;;;;;;;;25.42;45.52;99943.03;3510048;28;20011;-69
2021/07/06 04:35:22;;;;;;;;;;;;;;;25.46;45.53;99941.38;3510780;28;20341;-73
2021/07/06 04:37:03;;;;;;;;;;;;;;;25.49;45.55;99940.81;3504945;28;20399;-70
2021/07/06 04:38:43;;;;;;;;;;;;;;;25.53;45.81;99941.88;3497797;28;20015;-70
2021/07/06 04:40:24;;;;;;;;;;;;;;;25.54;45.52;99951.66;3510245;28;19931;-72
2021/07/06 04:42:06;;;;;;;;;;;;;;;25.56;45.37;99952.22;3510326;28;19920;-71
2021/07/06 04:43:46;;;;;;;;;;;;;;;25.57;45.30;99951.09;3498957;28;20015;-71
2021/07/06 04:45:27;;;;;;;;;;;;;;;25.62;45.40;99947.50;3496192;28;19932;-72
2021/07/06 04:47:07;;;;;;;;;;;;;;;25.68;45.47;99946.34;3497818;28;20229;-72
2021/07/06 04:48:48;;;;;;;;;;;;;;;25.74;45.54;99949.81;3510039;28;19977;-72
2021/07/06 04:50:29;;;;;;;;;;;;;;;25.78;45.25;99951.69;3510150;28;19923;-71
2021/07/06 04:52:10;;;;;;;;;;;;;;;25.82;45.26;99952.75;3509772;28;19924;-71
2021/07/06 04:53:50;;;;;;;;;;;;;;;25.86;45.29;99956.56;3505760;28;19924;-71
2021/07/06 04:55:31;;;;;;;;;;;;;;;25.90;44.94;99948.59;3509966;28;19978;-71
2021/07/06 04:57:11;;;;;;;;;;;;;;;25.93;44.87;99948.03;3508927;28;19924;-70
2021/07/06 04:58:52;;;;;;;;;;;;;;;25.95;44.69;99945.00;3482360;28;19990;-70
2021/07/06 05:00:32;;;;;;;;;;;;;;;25.97;44.94;99943.63;3501257;28;20317;-71
2021/07/06 05:02:13;;;;;;;;;;;;;;;26.02;44.74;99951.75;3498811;28;19924;-70
2021/07/06 05:03:54;;;;;;;;;;;;;;;26.04;44.58;99956.91;3501796;28;19924;-70
2021/07/06 05:05:39;;;;;;;;;;;;;;;26.05;44.58;99953.91;3510090;28;20387;-71
2021/07/06 05:07:20;;;;;;;;;;;;;;;26.05;44.69;99953.91;3500174;28;19978;-71
2021/07/06 05:09:00;;;;;;;;;;;;;;;26.07;44.36;99957.16;3495161;28;19967;-68
2021/07/06 05:10:41;;;;;;;;;;;;;;;26.11;44.20;99950.00;3492973;28;19967;-69
2021/07/06 05:12:22;;;;;;;;;;;;;;;26.17;44.52;99963.59;3505287;28;19928;-71
2021/07/06 05:14:02;;;;;;;;;;;;;;;26.23;44.35;99954.22;3498149;28;20431;-67
2021/07/06 05:15:43;;;;;;;;;;;;;;;26.27;44.17;99963.47;3501754;28;19971;-69
2021/07/06 05:17:23;;;;;;;;;;;;;;;26.32;44.13;99960.69;3509723;28;19924;-69
2021/07/06 05:19:04;;;;;;;;;;;;;;;26.37;44.37;99971.53;3510412;28;19973;-70
2021/07/06 05:20:44;;;;;;;;;;;;;;;26.41;44.00;99972.59;3509954;28;20414;-69
2021/07/06 05:22:25;;;;;;;;;;;;;;;26.45;43.89;99962.69;3502653;28;20337;-68
2021/07/06 05:24:05;;;;;;;;;;;;;;;26.46;44.16;99961.59;3495761;28;20310;-68
2021/07/06 05:25:46;;;;;;;;;;;;;;;26.48;43.79;99964.81;3510796;28;19924;-68
2021/07/06 05:27:26;;;;;;;;;;;;;;;26.54;44.09;99976.56;3513027;28;19968;-69
2021/07/06 05:29:07;;;;;;;;;;;;;;;26.58;43.94;99971.31;3512553;28;19924;-70
2021/07/06 05:30:48;;;;;;;;;;;;;;;26.62;43.62;99975.09;3504101;28;19924;-68
2021/07/06 05:32:28;;;;;;;;;;;;;;;26.64;43.81;99967.38;3497165;28;20455;-69
2021/07/06 05:34:09;;;;;;;;;;;;;;;26.69;43.43;99973.63;3498068;28;20322;-69
2021/07/06 05:35:49;;;;;;;;;;;;;;;26.73;43.32;99971.91;3489918;28;19925;-69
2021/07/06 05:37:30;;;;;;;;;;;;;;;26.74;43.07;99973.53;3510404;28;20014;-70
2021/07/06 05:39:12;;;;;;;;;;;;;;;26.75;42.88;99969.69;3488900;28;19931;-69
2021/07/06 05:40:57;;;;;;;;;;;;;;;26.75;43.02;99977.91;3497906;28;19921;-69
2021/07/06 05:42:38;;;;;;;;;;;;;;;26.78;42.73;99968.28;3501312;28;19931;-72
2021/07/06 05:44:19;;;;;;;;;;;;;;;26.83;42.68;99970.94;3511769;28;20379;-69
2021/07/06 05:45:59;;;;;;;;;;;;;;;26.89;42.81;99972.50;3503254;28;20018;-70
2021/07/06 05:47:41;;;;;;;;;;;;;;;26.95;43.01;99976.78;3498143;28;20355;-70
2021/07/06 05:49:21;;;;;;;;;;;;;;;27.00;42.62;99972.34;3497945;28;19924;-68
2021/07/06 05:51:02;;;;;;;;;;;;;;;27.03;42.50;99971.75;3500622;28;19932;-68
2021/07/06 05:52:44;;;;;;;;;;;;;;;27.08;42.33;99968.94;3511230;28;20023;-69
2021/07/06 05:54:24;;;;;;;;;;;;;;;27.13;41.93;99968.84;3510237;28;19924;-69
2021/07/06 05:56:05;;;;;;;;;;;;;;;27.18;42.03;99972.38;3498288;28;20023;-69
2021/07/06 05:57:45;;;;;;;;;;;;;;;27.24;41.97;99975.84;3498328;28;20387;-70
2021/07/06 05:59:26;;;;;;;;;;;;;;;27.31;42.26;99964.47;3502429;28;20973;-70
2021/07/06 06:01:09;;;;;;;;;;;;;;;27.36;42.17;99976.19;3503510;28;19928;-71
2021/07/06 06:02:50;;;;;;;;;;;;;;;27.41;41.87;99981.53;3501551;28;20280;-69
2021/07/06 06:04:30;;;;;;;;;;;;;;;27.48;42.01;99983.09;3500467;28;19981;-70
2021/07/06 06:06:11;;;;;;;;;;;;;;;27.51;41.97;99963.31;3497880;28;19931;-68
2021/07/06 06:07:51;;;;;;;;;;;;;;;27.54;41.97;99979.94;3498073;28;20276;-70
2021/07/06 06:09:33;;;;;;;;;;;;;;;27.58;41.88;99972.78;3497780;28;19978;-69
2021/07/06 06:11:13;;;;;;;;;;;;;;;27.58;41.77;99988.41;3505893;28;20385;-69
2021/07/06 06:12:56;;;;;;;;;;;;;;;27.65;41.09;99980.63;3496949;28;19924;-70
2021/07/06 06:14:37;;;;;;;;;;;;;;;27.69;41.25;99983.56;3490216;28;19929;-69
2021/07/06 06:16:17;;;;;;;;;;;;;;;27.74;41.21;99978.78;3503995;28;19924;-70
2021/07/06 06:17:58;;;;;;;;;;;;;;;27.81;41.67;99979.25;3505819;28;19924;-71
2021/07/06 06:19:40;;;;;;;;;;;;;;;27.86;41.47;99983.00;3498089;28;19924;-70
2021/07/06 06:21:23;;;;;;;;;;;;;;;27.91;41.02;99982.91;3497862;28;20017;-69
2021/07/06 06:23:04;;;;;;;;;;;;;;;27.97;41.17;99987.97;3495155;28;20319;-69
2021/07/06 06:24:46;;;;;;;;;;;;;;;28.03;40.61;99992.22;3484343;28;19924;-70
2021/07/06 06:26:28;;;;;;;;;;;;;;;28.11;41.10;99987.97;3489320;28;19940;-71
2021/07/06 06:28:08;;;;;;;;;;;;;;;28.16;40.49;99981.59;3490565;28;19924;-70
2021/07/06 06:29:49;;;;;;;;;;;;;;;28.24;40.16;99987.19;3490619;28;19924;-70
2021/07/06 06:31:30;;;;;;;;;;;;;;;28.31;40.05;99985.94;3483697;28;19921;-71
2021/07/06 06:33:11;;;;;;;;;;;;;;;28.37;40.38;99995.69;3489874;28;19931;-71
2021/07/06 06:34:51;;;;;;;;;;;;;;;28.39;39.85;99996.19;3488482;28;19924;-71
2021/07/06 06:36:32;;;;;;;;;;;;;;;28.38;39.36;99992.66;3485169;28;19932;-71
2021/07/06 06:38:12;;;;;;;;;;;;;;;28.34;38.66;99996.31;3482442;28;20027;-71
2021/07/06 06:39:53;;;;;;;;;;;;;;;28.32;38.48;99996.63;3487677;28;19936;-70
2021/07/06 06:41:34;;;;;;;;;;;;;;;28.36;38.88;99994.06;3489781;28;19987;-71
2021/07/06 06:43:15;;;;;;;;;;;;;;;28.48;38.47;99986.97;3487439;28;19924;-71
2021/07/06 06:44:56;;;;;;;;;;;;;;;28.60;38.88;99983.69;3486165;28;20045;-71
2021/07/06 06:46:38;;;;;;;;;;;;;;;28.73;38.60;99990.28;3486492;28;19969;-72
2021/07/06 06:48:19;;;;;;;;;;;;;;;28.84;38.79;99982.66;3487199;28;19924;-71
2021/07/06 06:50:00;;;;;;;;;;;;;;;28.93;39.10;99975.28;3488235;28;20414;-71
2021/07/06 06:51:42;;;;;;;;;;;;;;;28.96;38.63;99980.16;3486646;28;19928;-71
2021/07/06 06:53:23;;;;;;;;;;;;;;;28.96;38.49;99985.63;3488267;28;20058;-72
2021/07/06 06:55:04;;;;;;;;;;;;;;;29.03;38.87;99985.22;3486372;28;20019;-72
2021/07/06 06:56:44;;;;;;;;;;;;;;;29.11;38.57;99977.06;3485793;28;19982;-71
2021/07/06 06:58:25;;;;;;;;;;;;;;;29.24;38.51;99982.81;3487682;28;19928;-71
2021/07/06 07:00:08;;;;;;;;;;;;;;;29.36;38.11;99988.56;3486718;28;19936;-71
2021/07/06 07:01:48;;;;;;;;;;;;;;;29.43;38.20;99983.44;3485269;28;19924;-72
2021/07/06 07:03:29;;;;;;;;;;;;;;;29.54;37.86;99984.00;3489174;28;19954;-71
2021/07/06 07:05:14;;;;;;;;;;;;;;;29.67;37.85;99979.56;3490503;28;19931;-72
2021/07/06 07:06:54;;;;;;;;;;;;;;;29.77;38.00;99993.84;3488505;28;19977;-70
2021/07/06 07:08:35;;;;;;;;;;;;;;;29.86;37.76;99982.88;3487106;28;19971;-71
2021/07/06 07:10:15;;;;;;;;;;;;;;;29.96;37.54;99981.81;3493830;28;19975;-71
2021/07/06 07:11:56;;;;;;;;;;;;;;;30.03;37.63;99989.59;3496686;28;19978;-70
2021/07/06 07:13:36;;;;;;;;;;;;;;;30.06;37.48;99995.28;3496874;28;20025;-71
2021/07/06 07:15:17;;;;;;;;;;;;;;;30.09;37.39;99988.31;3496722;28;19990;-70
2021/07/06 07:16:57;;;;;;;;;;;;;;;30.09;37.07;99991.88;3494783;28;19928;-70
2021/07/06 07:18:38;;;;;;;;;;;;;;;30.08;36.94;99992.22;3494451;28;20444;-72
2021/07/06 07:20:19;;;;;;;;;;;;;;;30.04;36.66;99991.22;3492999;28;19976;-71
2021/07/06 07:22:00;;;;;;;;;;;;;;;30.01;36.21;99995.41;3493105;28;20070;-73
2021/07/06 07:23:41;;;;;;;;;;;;;;;30.04;36.17;99985.72;3491592;28;20471;-70
2021/07/06 07:25:22;;;;;;;;;;;;;;;30.09;36.01;99980.06;3492705;28;19931;-71
2021/07/06 07:27:02;;;;;;;;;;;;;;;30.16;36.08;99978.50;3495034;28;20379;-70
2021/07/06 07:28:43;;;;;;;;;;;;;;;30.28;36.21;99977.88;3496403;28;20613;-69
2021/07/06 07:30:24;;;;;;;;;;;;;;;30.40;36.10;99978.09;3495994;28;19932;-69
2021/07/06 07:32:05;;;;;;;;;;;;;;;30.52;36.09;99976.69;3490799;28;19932;-72
2021/07/06 07:33:46;;;;;;;;;;;;;;;30.61;36.11;99980.22;3490760;28;19925;-71
2021/07/06 07:35:26;;;;;;;;;;;;;;;30.68;35.79;99982.53;3494796;28;19931;-75
2021/07/06 07:37:07;;;;;;;;;;;;;;;30.78;35.99;99988.50;3491566;28;20426;-74
2021/07/06 07:38:49;;;;;;;;;;;;;;;30.93;35.51;99980.94;3495841;28;19928;-74
2021/07/06 07:40:30;;;;;;;;;;;;;;;31.06;35.30;99989.03;3485600;28;19978;-72
2021/07/06 07:42:11;;;;;;;;;;;;;;;31.16;34.91;99979.66;3486627;28;19932;-71
2021/07/06 07:43:54;;;;;;;;;;;;;;;31.27;34.87;99983.66;3492539;28;20001;-73
2021/07/06 07:45:35;;;;;;;;;;;;;;;31.39;34.37;99973.94;3490817;28;19924;-71
2021/07/06 07:47:17;;;;;;;;;;;;;;;31.51;34.11;99976.84;3493464;28;19925;-73
2021/07/06 07:48:57;;;;;;;;;;;;;;;31.66;34.17;99978.28;3491359;28;20402;-74
2021/07/06 07:50:38;;;;;;;;;;;;;;;31.81;34.23;99974.19;3495610;28;19931;-74
2021/07/06 07:52:19;;;;;;;;;;;;;;;31.94;33.93;99973.19;3495913;28;20295;-72
2021/07/06 07:53:59;;;;;;;;;;;;;;;32.11;33.83;99977.78;3489775;28;19974;-74
2021/07/06 07:55:40;;;;;;;;;;;;;;;32.26;33.73;99968.94;3492020;28;20033;-72
2021/07/06 07:57:23;;;;;;;;;;;;;;;32.41;33.52;99973.09;3492770;28;20302;-73
2021/07/06 07:59:04;;;;;;;;;;;;;;;32.51;33.22;99974.69;3493786;28;19978;-75
2021/07/06 08:00:45;;;;;;;;;;;;;;;32.64;33.09;99964.53;3489021;28;19960;-75
2021/07/06 08:02:38;;;;;;;;;;;;;;;32.73;32.85;99979.06;3485978;28;19925;-74
2021/07/06 08:04:19;;;;;;;;;;;;;;;32.83;32.75;99964.03;3496613;28;20717;-73
2021/07/06 08:05:59;;;;;;;;;;;;;;;32.95;32.85;99972.41;3492235;28;20005;-74
2021/07/06 08:07:40;;;;;;;;;;;;;;;33.08;32.78;99970.53;3492177;28;19932;-72
2021/07/06 08:09:20;;;;;;;;;;;;;;;33.17;32.36;99974.84;3490946;28;19925;-74
2021/07/06 08:11:01;;;;;;;;;;;;;;;33.30;32.21;99978.41;3490941;28;19925;-75
2021/07/06 08:12:43;;;;;;;;;;;;;;;33.40;31.91;99961.41;3487963;28;20334;-75
2021/07/06 08:14:23;;;;;;;;;;;;;;;33.49;31.76;99961.34;3493829;28;20178;-75
2021/07/06 08:16:04;;;;;;;;;;;;;;;33.57;32.24;99968.75;3504591;28;20015;-74
2021/07/06 08:17:45;;;;;;;;;;;;;;;33.63;31.65;99974.84;3501927;28;19931;-72
2021/07/06 08:19:25;;;;;;;;;;;;;;;33.72;31.60;99970.06;3494889;28;21006;-74
2021/07/06 08:21:06;;;;;;;;;;;;;;;33.82;31.48;99964.06;3494910;28;20010;-73
2021/07/06 08:22:47;;;;;;;;;;;;;;;33.96;31.24;99960.16;3490061;28;20019;-77
2021/07/06 08:24:27;;;;;;;;;;;;;;;34.10;31.06;99963.41;3497847;28;19937;-77
2021/07/06 08:26:08;;;;;;;;;;;;;;;34.25;31.03;99967.44;3487779;28;19924;-74
2021/07/06 08:27:48;;;;;;;;;;;;;;;34.32;30.74;99953.81;3485566;28;19932;-74
2021/07/06 08:29:31;;;;;;;;;;;;;;;34.37;31.01;99959.13;3482608;28;20344;-75
2021/07/06 08:31:12;;;;;;;;;;;;;;;34.40;30.34;99958.41;3485161;28;19924;-76
2021/07/06 08:32:53;;;;;;;;;;;;;;;34.47;30.65;99969.72;3485944;28;19931;-75
2021/07/06 08:34:33;;;;;;;;;;;;;;;34.59;30.30;99976.41;3485657;28;19928;-73
2021/07/06 08:36:14;;;;;;;;;;;;;;;34.71;30.60;99968.88;3484135;28;20783;-76
2021/07/06 08:37:54;;;;;;;;;;;;;;;34.84;29.62;99971.63;3485779;28;19931;-77
2021/07/06 08:39:35;;;;;;;;;;;;;;;34.93;29.85;99975.06;3484558;28;19925;-73
2021/07/06 08:41:15;;;;;;;;;;;;;;;35.01;29.69;99978.81;3487991;28;19924;-75
2021/07/06 08:42:59;;;;;;;;;;;;;;;35.04;30.02;99970.63;3487734;28;19931;-75
2021/07/06 08:44:41;;;;;;;;;;;;;;;35.08;30.14;99959.66;3495164;28;20523;-75
2021/07/06 08:46:21;;;;;;;;;;;;;;;35.12;29.41;99961.38;3496025;28;19924;-76